01:08
Airports
History
Links
Donate
Help keep this website running!
PayPal
Bitcoin
This page is community maintained. The information is intended for PC simulator navigation or reference.
Always use approved charts for navigation.
EDBU
Pritzwalk Sommersberg
Pritzwalk Sommersberg (EDBU)
Pritzwalk, Brandenburg, Germany (16928)
4
Lat/Lng:53° 10' 32.4" N / 12° 11' 7.18" E
53.175667 / 12.185329
Elevation:289'ft / 88mMSL
ID / ICAO:EDBU
Runways:1
Longest:08-26
Grass 596m / 1,954ft
Nearby Weather16:50 GMT 2017-11-17
Nearby weather at EDOP, Schwerin Parchim located 24.0 nautical miles from EDBU
Altimeter: 30.21
Visibility: 6.2 statute miles
Wind: 8 knots (from 230°)
Temp: 6°c / 43°f
Humidity: 87.0%

METAR: EDOP 171650Z 23008KT 9999 FEW047 06/04 Q1023

(Powered by phpweather)
Nearby VORs <50NM
Nearby NDBs
Runway 08 / 26
Dimensions:595.5 x 22.9m 1954' x 75'ft
Surface:Grass
Runway 08 [A]Runway 26 [B]
Heading:079°TH 259°TH
Lat:
Lng:
53° 10' 30.55"N
12° 10' 51.27"E
53° 10' 34.25"N
12° 11' 23.1"E
User Notes and Comments
53° 10' 32.4" N / 12° 11' 7.18" E
Distance To
Airport ID:
Nearby Airports
(U) KYRITZ 20.4 NM
EDBK SSE 150°
(C) Schwerin Parchim 24.0 NM
EDOP ( WX ) NW 316°
(U) RECHLIN LARZ 25.2 NM
EDAX ENE 68°
(C) Neustadt-Glewe 26.8 NM
EDAN WNW 298°
4 Segeletz 28.8 NM
EDAI SSE 147°
(U) Fehrbellin 35.9 NM
EDBF SE 137°
(C) Pinnow 39.8 NM
EDBP NW 319°
VFR Chart
Flight Planning at SkyVector.com